ACA1107 CYXE-CYVR
Flight info
| Callsign | ACA1107 |
|---|---|
| Flight time | N/A |
| Altitude | 36000 |
| Route | OVATA DCT BORIX DCT SPRAE DCT BOOTH CANUC6 |
| Aircraft | A320/M-SDE3FGHIRWY/LB1 |
Departure
| Time | 2026-05-09 18:46 |
|---|---|
| Airport | Saskatoon John G. Diefenbaker International Airport (CYXE) |
Arrival
| Time | N/A |
|---|---|
| Airport | Vancouver International Airport (CYVR) |
| Time | Latitude | Longitude | Altitude | Speed | Heading |
|---|---|---|---|---|---|
| 2026-05-09 18:31 | 52.17054 | -106.69139 | 1649 ft | 0 kts | 150° |
| 2026-05-09 18:38 | 52.17058 | -106.69143 | 1649 ft | 3 kts | 150° |
| 2026-05-09 18:38 | 52.17082 | -106.69162 | 1649 ft | 4 kts | 159° |
| 2026-05-09 18:38 | 52.17107 | -106.69175 | 1649 ft | 4 kts | 177° |
| 2026-05-09 18:40 | 52.17135 | -106.69155 | 1649 ft | 0 kts | 248° |
| 2026-05-09 18:40 | 52.17134 | -106.69158 | 1649 ft | 3 kts | 249° |
| 2026-05-09 18:41 | 52.17116 | -106.69235 | 1649 ft | 10 kts | 249° |
| 2026-05-09 18:41 | 52.17080 | -106.69347 | 1649 ft | 12 kts | 231° |
| 2026-05-09 18:41 | 52.17014 | -106.69454 | 1649 ft | 14 kts | 241° |
| 2026-05-09 18:41 | 52.17057 | -106.69553 | 1649 ft | 12 kts | 339° |
| 2026-05-09 18:42 | 52.17140 | -106.69599 | 1649 ft | 14 kts | 342° |
| 2026-05-09 18:42 | 52.17229 | -106.69654 | 1649 ft | 9 kts | 332° |
| 2026-05-09 18:42 | 52.17261 | -106.69625 | 1649 ft | 6 kts | 73° |
| 2026-05-09 18:42 | 52.17258 | -106.69544 | 1649 ft | 10 kts | 105° |
| 2026-05-09 18:43 | 52.17241 | -106.69407 | 1649 ft | 14 kts | 99° |
| 2026-05-09 18:43 | 52.17221 | -106.69229 | 1649 ft | 17 kts | 101° |
| 2026-05-09 18:43 | 52.17196 | -106.69022 | 1648 ft | 20 kts | 101° |
| 2026-05-09 18:43 | 52.17167 | -106.68793 | 1648 ft | 22 kts | 102° |
| 2026-05-09 18:44 | 52.17138 | -106.68538 | 1648 ft | 24 kts | 104° |
| 2026-05-09 18:44 | 52.17116 | -106.68353 | 1648 ft | 13 kts | 85° |
| 2026-05-09 18:44 | 52.17185 | -106.68271 | 1648 ft | 14 kts | 15° |
| 2026-05-09 18:44 | 52.17283 | -106.68239 | 1648 ft | 15 kts | 11° |
| 2026-05-09 18:45 | 52.17387 | -106.68248 | 1647 ft | 15 kts | 338° |
| 2026-05-09 18:45 | 52.17439 | -106.68387 | 1648 ft | 15 kts | 284° |
| 2026-05-09 18:45 | 52.17498 | -106.68885 | 1647 ft | 86 kts | 282° |
| 2026-05-09 18:45 | 52.17667 | -106.70228 | 1648 ft | 154 kts | 281° |
| 2026-05-09 18:46 | 52.17852 | -106.72163 | 1987 ft | 184 kts | 280° |
| 2026-05-09 18:46 | 52.18035 | -106.74175 | 3177 ft | 174 kts | 282° |
| 2026-05-09 18:46 | 52.18236 | -106.76070 | 4081 ft | 176 kts | 282° |
| 2026-05-09 18:46 | 52.18317 | -106.78168 | 4578 ft | 198 kts | 266° |
| 2026-05-09 18:47 | 52.18153 | -106.80516 | 5068 ft | 218 kts | 268° |
| 2026-05-09 18:47 | 52.18013 | -106.83089 | 5559 ft | 237 kts | 268° |
| 2026-05-09 18:47 | 52.17862 | -106.85792 | 6407 ft | 241 kts | 268° |
| 2026-05-09 18:47 | 52.17696 | -106.88609 | 6935 ft | 260 kts | 268° |
| 2026-05-09 18:48 | 52.17509 | -106.91587 | 7797 ft | 265 kts | 267° |
| 2026-05-09 18:48 | 52.17312 | -106.94597 | 8752 ft | 269 kts | 268° |
| 2026-05-09 18:48 | 52.17113 | -106.97639 | 9732 ft | 272 kts | 268° |
| 2026-05-09 18:48 | 52.16913 | -107.00727 | 10586 ft | 280 kts | 269° |
| 2026-05-09 18:49 | 52.16773 | -107.02910 | 10861 ft | 295 kts | 269° |
| 2026-05-09 18:49 | 52.16556 | -107.06311 | 11187 ft | 317 kts | 268° |
| 2026-05-09 18:49 | 52.16314 | -107.09962 | 11858 ft | 326 kts | 268° |
| 2026-05-09 18:49 | 52.15977 | -107.14895 | 13035 ft | 330 kts | 268° |
| 2026-05-09 18:50 | 52.15809 | -107.17368 | 13609 ft | 332 kts | 269° |
| 2026-05-09 18:50 | 52.15554 | -107.21127 | 14416 ft | 336 kts | 269° |
| 2026-05-09 18:50 | 52.15297 | -107.24914 | 15169 ft | 339 kts | 269° |
| 2026-05-09 18:50 | 52.15037 | -107.28759 | 15915 ft | 342 kts | 269° |
| 2026-05-09 18:51 | 52.14775 | -107.32623 | 16636 ft | 346 kts | 269° |
| 2026-05-09 18:51 | 52.14509 | -107.36534 | 17357 ft | 350 kts | 269° |
| 2026-05-09 18:51 | 52.14238 | -107.40492 | 18087 ft | 353 kts | 269° |
| 2026-05-09 18:51 | 52.13962 | -107.44481 | 18741 ft | 356 kts | 269° |
| 2026-05-09 18:52 | 52.13684 | -107.48502 | 19347 ft | 359 kts | 269° |
| 2026-05-09 18:52 | 52.13402 | -107.52565 | 19942 ft | 363 kts | 269° |
| 2026-05-09 18:52 | 52.13117 | -107.56648 | 20542 ft | 366 kts | 269° |
| 2026-05-09 18:52 | 52.12827 | -107.60791 | 21146 ft | 369 kts | 269° |
| 2026-05-09 18:53 | 52.12533 | -107.64955 | 21739 ft | 372 kts | 269° |
| 2026-05-09 18:53 | 52.12236 | -107.69150 | 22328 ft | 376 kts | 269° |
| 2026-05-09 18:53 | 52.11933 | -107.73405 | 22908 ft | 379 kts | 268° |
| 2026-05-09 18:53 | 52.11626 | -107.77685 | 23475 ft | 383 kts | 268° |
| 2026-05-09 18:54 | 52.11315 | -107.82004 | 24000 ft | 386 kts | 268° |
| 2026-05-09 18:54 | 52.11000 | -107.86355 | 24480 ft | 388 kts | 268° |
| 2026-05-09 18:54 | 52.10681 | -107.90730 | 24949 ft | 391 kts | 268° |
| 2026-05-09 18:54 | 52.10358 | -107.95140 | 25412 ft | 394 kts | 268° |
| 2026-05-09 18:55 | 52.10031 | -107.99574 | 25869 ft | 397 kts | 268° |
| 2026-05-09 18:55 | 52.09676 | -108.03971 | 26309 ft | 400 kts | 266° |
| 2026-05-09 18:55 | 52.09245 | -108.08466 | 26730 ft | 403 kts | 265° |
| 2026-05-09 18:55 | 52.08793 | -108.12987 | 27159 ft | 406 kts | 265° |
| 2026-05-09 18:56 | 52.08343 | -108.17518 | 27569 ft | 408 kts | 265° |
| 2026-05-09 18:56 | 52.07894 | -108.22094 | 27972 ft | 411 kts | 265° |
| 2026-05-09 18:56 | 52.07446 | -108.26693 | 28370 ft | 413 kts | 265° |
| 2026-05-09 18:56 | 52.06996 | -108.31310 | 28758 ft | 415 kts | 265° |
| 2026-05-09 18:57 | 52.06542 | -108.35975 | 29127 ft | 418 kts | 265° |
| 2026-05-09 18:57 | 52.06085 | -108.40641 | 29477 ft | 420 kts | 265° |
| 2026-05-09 18:57 | 52.05623 | -108.45345 | 29839 ft | 422 kts | 265° |
| 2026-05-09 18:57 | 52.05155 | -108.50081 | 30186 ft | 425 kts | 265° |
| 2026-05-09 18:58 | 52.04684 | -108.54838 | 30500 ft | 427 kts | 265° |
| 2026-05-09 18:58 | 52.04210 | -108.59597 | 30816 ft | 429 kts | 265° |
| 2026-05-09 18:58 | 52.03731 | -108.64388 | 31134 ft | 430 kts | 265° |
| 2026-05-09 18:58 | 52.03248 | -108.69192 | 31493 ft | 430 kts | 265° |
| 2026-05-09 18:59 | 52.02764 | -108.73986 | 31899 ft | 430 kts | 264° |
| 2026-05-09 18:59 | 52.02280 | -108.78758 | 32316 ft | 428 kts | 264° |
| 2026-05-09 18:59 | 52.01795 | -108.83524 | 32739 ft | 427 kts | 264° |
| 2026-05-09 18:59 | 52.01311 | -108.88265 | 33129 ft | 426 kts | 264° |
| 2026-05-09 19:00 | 52.00825 | -108.93001 | 33515 ft | 425 kts | 264° |
| 2026-05-09 19:00 | 52.00181 | -108.99251 | 34010 ft | 423 kts | 264° |
| 2026-05-09 19:00 | 51.99272 | -109.08019 | 34579 ft | 422 kts | 264° |
| 2026-05-09 19:01 | 51.98782 | -109.12714 | 34824 ft | 423 kts | 264° |
| 2026-05-09 19:01 | 51.98295 | -109.17361 | 35065 ft | 423 kts | 264° |
| 2026-05-09 19:01 | 51.97801 | -109.22060 | 35306 ft | 423 kts | 264° |
| 2026-05-09 19:01 | 51.97305 | -109.26759 | 35530 ft | 424 kts | 264° |
| 2026-05-09 19:02 | 51.96805 | -109.31470 | 35767 ft | 424 kts | 264° |
| 2026-05-09 19:02 | 51.96303 | -109.36183 | 35995 ft | 424 kts | 264° |
| 2026-05-09 19:02 | 51.95798 | -109.40904 | 36138 ft | 424 kts | 264° |
| 2026-05-09 19:02 | 51.95293 | -109.45607 | 36149 ft | 423 kts | 264° |
| 2026-05-09 19:03 | 51.94279 | -109.54997 | 36147 ft | 423 kts | 263° |
| 2026-05-09 19:03 | 51.93258 | -109.64382 | 36144 ft | 423 kts | 263° |
| 2026-05-09 19:04 | 51.92230 | -109.73763 | 36146 ft | 423 kts | 263° |
| 2026-05-09 19:04 | 51.91195 | -109.83130 | 36141 ft | 423 kts | 263° |
| 2026-05-09 19:05 | 51.90151 | -109.92506 | 36143 ft | 423 kts | 263° |
| 2026-05-09 19:05 | 51.89053 | -110.01867 | 36141 ft | 424 kts | 260° |
| 2026-05-09 19:06 | 51.87744 | -110.11171 | 36141 ft | 424 kts | 261° |
| 2026-05-09 19:06 | 51.86468 | -110.20481 | 36138 ft | 424 kts | 261° |
| 2026-05-09 19:07 | 51.85184 | -110.29782 | 36137 ft | 424 kts | 261° |
| 2026-05-09 19:07 | 51.83886 | -110.39078 | 36141 ft | 424 kts | 261° |
| 2026-05-09 19:08 | 51.82577 | -110.48371 | 36143 ft | 424 kts | 260° |
| 2026-05-09 19:08 | 51.81260 | -110.57647 | 36147 ft | 424 kts | 260° |
| 2026-05-09 19:09 | 51.79935 | -110.66929 | 36144 ft | 424 kts | 260° |
| 2026-05-09 19:09 | 51.78611 | -110.76139 | 36146 ft | 424 kts | 260° |
| 2026-05-09 19:10 | 51.77272 | -110.85406 | 36145 ft | 424 kts | 260° |
| 2026-05-09 19:10 | 51.75926 | -110.94663 | 36144 ft | 424 kts | 260° |
| 2026-05-09 19:11 | 51.74571 | -111.03923 | 36149 ft | 424 kts | 260° |
| 2026-05-09 19:11 | 51.73207 | -111.13195 | 36143 ft | 425 kts | 260° |
| 2026-05-09 19:12 | 51.71835 | -111.22461 | 36146 ft | 425 kts | 260° |
| 2026-05-09 19:12 | 51.70688 | -111.30168 | 36151 ft | 425 kts | 260° |
| 2026-05-09 19:13 | 51.69299 | -111.39449 | 36155 ft | 426 kts | 260° |
| 2026-05-09 19:13 | 51.67904 | -111.48717 | 36150 ft | 426 kts | 260° |
| 2026-05-09 19:14 | 51.66502 | -111.57981 | 36150 ft | 426 kts | 260° |
| 2026-05-09 19:14 | 51.65091 | -111.67242 | 36141 ft | 426 kts | 260° |
| 2026-05-09 19:15 | 51.63671 | -111.76512 | 36141 ft | 426 kts | 260° |
| 2026-05-09 19:15 | 51.62244 | -111.85778 | 36130 ft | 427 kts | 260° |
| 2026-05-09 19:16 | 51.60809 | -111.95038 | 36129 ft | 427 kts | 260° |
| 2026-05-09 19:16 | 51.59366 | -112.04299 | 36124 ft | 427 kts | 260° |
| 2026-05-09 19:17 | 51.57913 | -112.13573 | 36114 ft | 428 kts | 260° |
| 2026-05-09 19:17 | 51.56451 | -112.22850 | 36111 ft | 428 kts | 260° |
| 2026-05-09 19:18 | 51.54981 | -112.32130 | 36111 ft | 429 kts | 260° |
| 2026-05-09 19:18 | 51.53504 | -112.41400 | 36106 ft | 429 kts | 260° |
| 2026-05-09 19:19 | 51.52013 | -112.50701 | 36099 ft | 430 kts | 260° |
| 2026-05-09 19:19 | 51.50524 | -112.59937 | 36094 ft | 430 kts | 260° |
| 2026-05-09 19:20 | 51.49019 | -112.69227 | 36097 ft | 430 kts | 260° |
| 2026-05-09 19:20 | 51.47506 | -112.78517 | 36093 ft | 430 kts | 260° |
| 2026-05-09 19:21 | 51.45986 | -112.87795 | 36096 ft | 430 kts | 260° |
| 2026-05-09 19:21 | 51.44458 | -112.97071 | 36097 ft | 430 kts | 260° |
| 2026-05-09 19:22 | 51.42922 | -113.06345 | 36103 ft | 431 kts | 260° |
| 2026-05-09 19:22 | 51.41378 | -113.15615 | 36103 ft | 430 kts | 260° |
| 2026-05-09 19:23 | 51.39828 | -113.24875 | 36102 ft | 430 kts | 259° |
| 2026-05-09 19:23 | 51.38272 | -113.34115 | 36101 ft | 430 kts | 259° |
| 2026-05-09 19:24 | 51.36711 | -113.43340 | 36115 ft | 429 kts | 259° |
| 2026-05-09 19:24 | 51.35142 | -113.52562 | 36101 ft | 429 kts | 259° |
| 2026-05-09 19:25 | 51.33569 | -113.61760 | 36107 ft | 429 kts | 259° |
| 2026-05-09 19:25 | 51.31990 | -113.70948 | 36104 ft | 428 kts | 259° |
| 2026-05-09 19:26 | 51.30403 | -113.80129 | 36109 ft | 428 kts | 259° |
| 2026-05-09 19:26 | 51.28809 | -113.89304 | 36106 ft | 428 kts | 259° |
| 2026-05-09 19:27 | 51.27210 | -113.98463 | 36110 ft | 428 kts | 259° |
| 2026-05-09 19:27 | 51.25602 | -114.07624 | 36107 ft | 428 kts | 259° |
| 2026-05-09 19:28 | 51.23987 | -114.16779 | 36109 ft | 429 kts | 259° |
| 2026-05-09 19:28 | 51.22366 | -114.25926 | 36116 ft | 429 kts | 259° |
| 2026-05-09 19:29 | 51.20734 | -114.35080 | 36121 ft | 429 kts | 259° |
| 2026-05-09 19:29 | 51.19107 | -114.44165 | 36120 ft | 429 kts | 259° |
| 2026-05-09 19:30 | 51.17464 | -114.53295 | 36124 ft | 429 kts | 258° |
| 2026-05-09 19:30 | 51.15811 | -114.62432 | 36124 ft | 429 kts | 258° |
| 2026-05-09 19:31 | 51.14152 | -114.71556 | 36123 ft | 429 kts | 258° |
| 2026-05-09 19:31 | 51.12486 | -114.80670 | 36122 ft | 429 kts | 258° |
| 2026-05-09 19:32 | 51.10814 | -114.89773 | 36122 ft | 429 kts | 258° |
| 2026-05-09 19:32 | 51.09136 | -114.98864 | 36121 ft | 428 kts | 258° |
| 2026-05-09 19:33 | 51.07453 | -115.07941 | 36118 ft | 428 kts | 258° |
| 2026-05-09 19:33 | 51.05762 | -115.17012 | 36117 ft | 427 kts | 258° |
| 2026-05-09 19:34 | 51.04068 | -115.26064 | 36115 ft | 427 kts | 258° |
| 2026-05-09 19:34 | 51.02372 | -115.35099 | 36117 ft | 427 kts | 258° |
| 2026-05-09 19:35 | 51.00677 | -115.44102 | 36107 ft | 424 kts | 257° |
| 2026-05-09 19:35 | 50.98893 | -115.53050 | 36108 ft | 425 kts | 257° |
| 2026-05-09 19:36 | 50.97203 | -115.62014 | 36116 ft | 424 kts | 258° |
| 2026-05-09 19:36 | 50.95507 | -115.70957 | 36120 ft | 423 kts | 257° |
| 2026-05-09 19:37 | 50.93791 | -115.79888 | 36125 ft | 423 kts | 257° |
| 2026-05-09 19:37 | 50.92080 | -115.88731 | 36133 ft | 422 kts | 257° |
| 2026-05-09 19:38 | 50.90348 | -115.97618 | 36125 ft | 421 kts | 257° |
| 2026-05-09 19:38 | 50.88613 | -116.06470 | 36130 ft | 420 kts | 257° |
| 2026-05-09 19:39 | 50.86874 | -116.15300 | 36129 ft | 419 kts | 257° |
| 2026-05-09 19:39 | 50.85136 | -116.24083 | 36129 ft | 418 kts | 256° |
| 2026-05-09 19:40 | 50.83393 | -116.32862 | 36135 ft | 418 kts | 256° |
| 2026-05-09 19:40 | 50.81647 | -116.41613 | 36145 ft | 417 kts | 256° |
| 2026-05-09 19:41 | 50.79893 | -116.50362 | 36157 ft | 417 kts | 256° |
| 2026-05-09 19:41 | 50.78135 | -116.59092 | 36171 ft | 418 kts | 256° |
| 2026-05-09 19:42 | 50.76364 | -116.67847 | 36182 ft | 418 kts | 256° |
| 2026-05-09 19:42 | 50.74589 | -116.76585 | 36173 ft | 418 kts | 256° |
| 2026-05-09 19:43 | 50.72809 | -116.85311 | 36185 ft | 418 kts | 256° |
| 2026-05-09 19:43 | 50.71032 | -116.93978 | 36180 ft | 418 kts | 256° |
| 2026-05-09 19:44 | 50.69237 | -117.02704 | 36189 ft | 418 kts | 255° |
| 2026-05-09 19:44 | 50.67437 | -117.11405 | 36177 ft | 417 kts | 255° |
| 2026-05-09 19:45 | 50.65639 | -117.20051 | 36171 ft | 414 kts | 255° |
| 2026-05-09 19:45 | 50.63837 | -117.28694 | 36169 ft | 415 kts | 255° |
| 2026-05-09 19:46 | 50.62030 | -117.37321 | 36166 ft | 415 kts | 255° |
| 2026-05-09 19:46 | 50.60216 | -117.45950 | 36162 ft | 415 kts | 255° |
| 2026-05-09 19:47 | 50.58398 | -117.54554 | 36160 ft | 414 kts | 255° |
| 2026-05-09 19:47 | 50.56579 | -117.63132 | 36161 ft | 415 kts | 255° |
| 2026-05-09 19:48 | 50.54748 | -117.71722 | 36157 ft | 413 kts | 255° |
| 2026-05-09 19:48 | 50.52915 | -117.80282 | 36151 ft | 413 kts | 255° |
| 2026-05-09 19:49 | 50.51080 | -117.88824 | 36157 ft | 413 kts | 255° |
| 2026-05-09 19:49 | 50.49240 | -117.97354 | 36156 ft | 411 kts | 255° |
| 2026-05-09 19:50 | 50.47404 | -118.05826 | 36145 ft | 410 kts | 254° |
| 2026-05-09 19:50 | 50.45565 | -118.14279 | 36140 ft | 409 kts | 254° |
| 2026-05-09 19:51 | 50.43738 | -118.22643 | 36138 ft | 408 kts | 254° |
| 2026-05-09 19:51 | 50.41896 | -118.31047 | 36141 ft | 407 kts | 254° |
| 2026-05-09 19:52 | 50.40050 | -118.39425 | 36141 ft | 406 kts | 254° |
| 2026-05-09 19:52 | 50.38199 | -118.47793 | 36143 ft | 406 kts | 254° |
| 2026-05-09 19:53 | 50.36344 | -118.56151 | 36148 ft | 406 kts | 254° |
| 2026-05-09 19:53 | 50.34489 | -118.64470 | 36139 ft | 405 kts | 254° |
| 2026-05-09 19:54 | 50.32629 | -118.72780 | 36140 ft | 404 kts | 254° |
| 2026-05-09 19:54 | 50.30766 | -118.81076 | 36148 ft | 405 kts | 254° |
| 2026-05-09 19:55 | 50.28894 | -118.89372 | 36154 ft | 404 kts | 254° |
| 2026-05-09 19:56 | 50.26082 | -119.01778 | 36157 ft | 403 kts | 254° |
| 2026-05-09 19:56 | 50.24204 | -119.10019 | 36148 ft | 402 kts | 253° |
| 2026-05-09 19:57 | 50.22338 | -119.18176 | 36150 ft | 401 kts | 253° |
| 2026-05-09 19:57 | 50.20459 | -119.26360 | 36160 ft | 400 kts | 253° |
| 2026-05-09 19:58 | 50.18577 | -119.34530 | 36159 ft | 400 kts | 253° |
| 2026-05-09 19:58 | 50.16691 | -119.42684 | 36155 ft | 399 kts | 253° |
| 2026-05-09 19:59 | 50.14805 | -119.50807 | 36154 ft | 398 kts | 253° |
| 2026-05-09 19:59 | 50.12919 | -119.58901 | 36146 ft | 396 kts | 253° |
| 2026-05-09 20:00 | 50.11036 | -119.66943 | 36142 ft | 395 kts | 253° |
| 2026-05-09 20:00 | 50.09155 | -119.74956 | 36142 ft | 394 kts | 253° |
| 2026-05-09 20:01 | 50.07268 | -119.82964 | 36137 ft | 393 kts | 253° |
| 2026-05-09 20:01 | 50.05698 | -119.89604 | 36136 ft | 393 kts | 253° |
| 2026-05-09 20:02 | 50.03803 | -119.97583 | 36132 ft | 392 kts | 253° |
| 2026-05-09 20:02 | 50.02044 | -120.04975 | 36128 ft | 392 kts | 253° |
| 2026-05-09 20:03 | 49.99172 | -120.16984 | 36150 ft | 393 kts | 252° |
| 2026-05-09 20:03 | 49.97274 | -120.24881 | 36137 ft | 391 kts | 252° |
| 2026-05-09 20:04 | 49.95362 | -120.32806 | 36140 ft | 391 kts | 252° |
| 2026-05-09 20:04 | 49.93452 | -120.40697 | 36143 ft | 390 kts | 252° |